Decoded Metar for CYVC (LA RONGE in SK, CANADA) (IATA:YVC) | Meteo·Mobile Aviation Weather
aviador You're here:

CYVC Decoded Metar

LA RONGE in SK, CANADA
Report Time2019-09-15 11:00:00
UTC Time2019-09-15 12:09:57
Flight Rules Old
Wind190° at 02 kt
W.Decomp.*RWY 18: 2.0 kt HW -0 kt LCW
RWY 11: 0.7 kt HW 1.9 kt RCW
Visibility9999 m
Phenomena:N/A
Clouds:Broken 075 Hf
Expected CloudBase > 400 ft AGL from Temp-Dew spread
Ceiling7,500 ft
Temp12°C (ISA -1)
Dew Point11°C (94% RH)
AAT11.6°C
QNH1005 hPa
Density Alt1,634 ft
Elevation1,243 ft
Report Wrong Elevation
Raw Report
CYVC 151100Z 19002KT 15SM BKN075 12/11 A2969 RMK AC7 SLP061
DENSITY ALT 1500FT=

Extra information for CYVC:More info

Metar Taf Metar & Taf Last 4 Metars F.Rules Stats Wind Profile Meteogram Temp Stats Airport Information Weather charts Add Link Nearby VenuesMetar ALERT Operation Metar Decoded Social comments